createdAt,value
2023-08-13T00:14:43.534Z,100
2023-08-13T00:43:29.136Z,100
2023-08-13T01:12:15.820Z,100
2023-08-13T01:40:58.476Z,100
2023-08-13T02:09:33.811Z,100
2023-08-13T02:38:29.798Z,100
2023-08-13T03:07:34.311Z,100
2023-08-13T03:36:33.821Z,100
2023-08-13T04:05:26.338Z,100
2023-08-13T04:34:22.922Z,100
2023-08-13T05:03:16.779Z,100
2023-08-13T05:32:18.262Z,100
2023-08-13T06:01:17.422Z,100
2023-08-13T06:30:24.053Z,100
2023-08-13T06:59:24.366Z,100
2023-08-13T07:28:39.483Z,100
2023-08-13T07:57:26.290Z,100
2023-08-13T08:26:47.086Z,99.79
2023-08-13T08:56:23.288Z,73.99
2023-08-13T09:25:17.956Z,80.59
2023-08-13T09:54:20.112Z,96.7
2023-08-13T10:23:25.665Z,90.9
2023-08-13T10:53:08.091Z,77.64
2023-08-13T11:22:09.003Z,75.39
2023-08-13T11:51:21.818Z,66.85
2023-08-13T12:19:50.844Z,59.29
2023-08-13T12:48:53.412Z,56.36
2023-08-13T13:17:47.146Z,60.31
2023-08-13T13:46:46.639Z,59.04
2023-08-13T14:15:50.200Z,61.05
2023-08-13T14:44:45.372Z,60.2
2023-08-13T15:13:49.155Z,60.17
2023-08-13T15:42:56.229Z,62.01
2023-08-13T16:11:58.018Z,63.31
2023-08-13T16:40:44.171Z,62.5
2023-08-13T17:09:54.876Z,67.58
2023-08-13T17:38:54.489Z,71.82
2023-08-13T18:08:15.660Z,71.4
2023-08-13T18:36:16.879Z,75.13
2023-08-13T19:04:37.626Z,78.77
2023-08-13T19:33:02.835Z,81.85
2023-08-13T20:01:23.546Z,87.51
2023-08-13T20:29:40.665Z,92.01
2023-08-13T20:57:58.848Z,92.38
2023-08-13T21:26:19.860Z,94.83
2023-08-13T21:54:36.761Z,96.7
2023-08-13T22:22:54.098Z,99.28
2023-08-13T22:51:20.174Z,99.73
2023-08-13T23:19:38.475Z,98.92
2023-08-13T23:47:57.035Z,100
